sensor_id;sensor_type;location;lat;lon;timestamp;temperature;humidity
4556;DHT22;2290;48.674;9.018;2022-11-25T00:01:17;3.60;99.90
4556;DHT22;2290;48.674;9.018;2022-11-25T00:03:43;3.60;99.90
4556;DHT22;2290;48.674;9.018;2022-11-25T00:06:11;3.50;99.90
4556;DHT22;2290;48.674;9.018;2022-11-25T00:08:37;3.60;99.90
4556;DHT22;2290;48.674;9.018;2022-11-25T00:11:03;3.50;99.90
4556;DHT22;2290;48.674;9.018;2022-11-25T00:13:29;3.50;99.90
4556;DHT22;2290;48.674;9.018;2022-11-25T00:15:55;3.50;99.90
4556;DHT22;2290;48.674;9.018;2022-11-25T00:18:20;3.50;99.90
4556;DHT22;2290;48.674;9.018;2022-11-25T00:20:46;3.60;99.90
4556;DHT22;2290;48.674;9.018;2022-11-25T00:23:12;3.70;99.90
4556;DHT22;2290;48.674;9.018;2022-11-25T00:25:37;3.80;99.90
4556;DHT22;2290;48.674;9.018;2022-11-25T00:28:03;3.90;99.90
4556;DHT22;2290;48.674;9.018;2022-11-25T00:30:28;3.90;99.90
4556;DHT22;2290;48.674;9.018;2022-11-25T00:32:54;4.00;99.90
4556;DHT22;2290;48.674;9.018;2022-11-25T00:35:20;4.10;99.90
4556;DHT22;2290;48.674;9.018;2022-11-25T00:37:45;4.20;99.90
4556;DHT22;2290;48.674;9.018;2022-11-25T00:40:11;4.40;99.90
4556;DHT22;2290;48.674;9.018;2022-11-25T00:42:37;4.50;99.90
4556;DHT22;2290;48.674;9.018;2022-11-25T00:45:21;4.50;99.90
4556;DHT22;2290;48.674;9.018;2022-11-25T00:47:46;4.60;99.90
4556;DHT22;2290;48.674;9.018;2022-11-25T00:50:12;4.70;99.90
4556;DHT22;2290;48.674;9.018;2022-11-25T00:52:38;4.70;99.90
4556;DHT22;2290;48.674;9.018;2022-11-25T00:55:04;4.70;99.90
4556;DHT22;2290;48.674;9.018;2022-11-25T00:57:30;4.80;99.90
4556;DHT22;2290;48.674;9.018;2022-11-25T00:59:56;4.90;99.90
4556;DHT22;2290;48.674;9.018;2022-11-25T01:02:23;5.00;99.90
4556;DHT22;2290;48.674;9.018;2022-11-25T01:04:49;5.10;99.90
4556;DHT22;2290;48.674;9.018;2022-11-25T01:07:14;5.20;99.90
4556;DHT22;2290;48.674;9.018;2022-11-25T01:09:40;5.30;99.90
4556;DHT22;2290;48.674;9.018;2022-11-25T01:12:06;5.30;99.90
4556;DHT22;2290;48.674;9.018;2022-11-25T01:14:32;5.40;99.90
4556;DHT22;2290;48.674;9.018;2022-11-25T01:16:57;5.40;99.90
4556;DHT22;2290;48.674;9.018;2022-11-25T01:19:23;5.50;99.90
4556;DHT22;2290;48.674;9.018;2022-11-25T01:21:49;5.50;99.90
4556;DHT22;2290;48.674;9.018;2022-11-25T01:24:16;5.60;99.90
4556;DHT22;2290;48.674;9.018;2022-11-25T01:26:43;5.60;99.90
4556;DHT22;2290;48.674;9.018;2022-11-25T01:29:16;5.60;99.90
4556;DHT22;2290;48.674;9.018;2022-11-25T01:31:43;5.60;99.90
4556;DHT22;2290;48.674;9.018;2022-11-25T01:34:19;5.60;99.90
4556;DHT22;2290;48.674;9.018;2022-11-25T01:36:45;5.60;99.90
4556;DHT22;2290;48.674;9.018;2022-11-25T01:39:22;5.60;99.90
4556;DHT22;2290;48.674;9.018;2022-11-25T01:41:48;5.70;99.90
4556;DHT22;2290;48.674;9.018;2022-11-25T01:44:17;5.70;99.90
4556;DHT22;2290;48.674;9.018;2022-11-25T01:47:08;5.60;99.90
4556;DHT22;2290;48.674;9.018;2022-11-25T01:52:16;5.50;99.90
4556;DHT22;2290;48.674;9.018;2022-11-25T01:55:09;5.50;99.90
4556;DHT22;2290;48.674;9.018;2022-11-25T02:00:37;5.40;99.90
4556;DHT22;2290;48.674;9.018;2022-11-25T02:03:03;5.40;99.90
4556;DHT22;2290;48.674;9.018;2022-11-25T02:05:40;5.30;99.90
4556;DHT22;2290;48.674;9.018;2022-11-25T02:08:11;5.40;99.90
4556;DHT22;2290;48.674;9.018;2022-11-25T02:10:37;5.30;99.90
4556;DHT22;2290;48.674;9.018;2022-11-25T02:13:04;5.30;99.90
4556;DHT22;2290;48.674;9.018;2022-11-25T02:15:32;5.30;99.90
4556;DHT22;2290;48.674;9.018;2022-11-25T02:17:58;5.30;99.90
4556;DHT22;2290;48.674;9.018;2022-11-25T02:20:24;5.30;99.90
4556;DHT22;2290;48.674;9.018;2022-11-25T02:23:06;5.30;99.90
4556;DHT22;2290;48.674;9.018;2022-11-25T02:25:39;5.20;99.90
4556;DHT22;2290;48.674;9.018;2022-11-25T02:28:16;5.20;99.90
4556;DHT22;2290;48.674;9.018;2022-11-25T02:30:42;5.20;99.90
4556;DHT22;2290;48.674;9.018;2022-11-25T02:33:08;5.20;99.90
4556;DHT22;2290;48.674;9.018;2022-11-25T02:35:57;5.20;99.90
4556;DHT22;2290;48.674;9.018;2022-11-25T02:38:35;5.20;99.90
4556;DHT22;2290;48.674;9.018;2022-11-25T02:43:50;5.10;99.90
4556;DHT22;2290;48.674;9.018;2022-11-25T02:46:19;5.00;99.90
4556;DHT22;2290;48.674;9.018;2022-11-25T02:48:46;5.00;99.90
4556;DHT22;2290;48.674;9.018;2022-11-25T02:51:14;5.00;99.90
4556;DHT22;2290;48.674;9.018;2022-11-25T02:53:40;5.00;99.90
4556;DHT22;2290;48.674;9.018;2022-11-25T02:56:07;5.00;99.90
4556;DHT22;2290;48.674;9.018;2022-11-25T02:58:33;5.00;99.90
4556;DHT22;2290;48.674;9.018;2022-11-25T03:00:58;4.90;99.90
4556;DHT22;2290;48.674;9.018;2022-11-25T03:03:24;4.80;99.90
4556;DHT22;2290;48.674;9.018;2022-11-25T03:05:50;4.80;99.90
4556;DHT22;2290;48.674;9.018;2022-11-25T03:08:15;4.70;99.90
4556;DHT22;2290;48.674;9.018;2022-11-25T03:10:41;4.70;99.90
4556;DHT22;2290;48.674;9.018;2022-11-25T03:13:08;4.70;99.90
4556;DHT22;2290;48.674;9.018;2022-11-25T03:15:34;4.70;99.90
4556;DHT22;2290;48.674;9.018;2022-11-25T03:18:01;4.60;99.90
4556;DHT22;2290;48.674;9.018;2022-11-25T03:20:28;4.60;99.90
4556;DHT22;2290;48.674;9.018;2022-11-25T03:22:54;4.60;99.90
4556;DHT22;2290;48.674;9.018;2022-11-25T03:25:20;4.70;99.90
4556;DHT22;2290;48.674;9.018;2022-11-25T03:27:45;4.70;99.90
4556;DHT22;2290;48.674;9.018;2022-11-25T03:30:17;4.60;99.90
4556;DHT22;2290;48.674;9.018;2022-11-25T03:32:43;4.60;99.90
4556;DHT22;2290;48.674;9.018;2022-11-25T03:35:09;4.60;99.90
4556;DHT22;2290;48.674;9.018;2022-11-25T03:37:35;4.40;99.90
4556;DHT22;2290;48.674;9.018;2022-11-25T03:40:02;4.40;99.90
4556;DHT22;2290;48.674;9.018;2022-11-25T03:42:28;4.40;99.90
4556;DHT22;2290;48.674;9.018;2022-11-25T03:44:53;4.40;99.90
4556;DHT22;2290;48.674;9.018;2022-11-25T03:47:19;4.50;99.90
4556;DHT22;2290;48.674;9.018;2022-11-25T03:49:44;4.40;99.90
4556;DHT22;2290;48.674;9.018;2022-11-25T03:52:10;4.40;99.90
4556;DHT22;2290;48.674;9.018;2022-11-25T03:54:35;4.40;99.90
4556;DHT22;2290;48.674;9.018;2022-11-25T03:57:01;4.40;99.90
4556;DHT22;2290;48.674;9.018;2022-11-25T03:59:26;4.20;99.90
4556;DHT22;2290;48.674;9.018;2022-11-25T04:01:52;4.30;99.90
4556;DHT22;2290;48.674;9.018;2022-11-25T04:04:18;4.20;99.90
4556;DHT22;2290;48.674;9.018;2022-11-25T04:06:43;4.20;99.90
4556;DHT22;2290;48.674;9.018;2022-11-25T04:09:09;4.20;99.90
4556;DHT22;2290;48.674;9.018;2022-11-25T04:11:36;4.20;99.90
4556;DHT22;2290;48.674;9.018;2022-11-25T04:14:20;4.20;99.90
4556;DHT22;2290;48.674;9.018;2022-11-25T04:16:46;4.30;99.90
4556;DHT22;2290;48.674;9.018;2022-11-25T04:19:12;4.30;99.90
4556;DHT22;2290;48.674;9.018;2022-11-25T04:21:37;4.30;99.90
4556;DHT22;2290;48.674;9.018;2022-11-25T04:24:03;4.30;99.90
4556;DHT22;2290;48.674;9.018;2022-11-25T04:26:28;4.30;99.90
4556;DHT22;2290;48.674;9.018;2022-11-25T04:28:54;4.30;99.90
4556;DHT22;2290;48.674;9.018;2022-11-25T04:31:20;4.20;99.90
4556;DHT22;2290;48.674;9.018;2022-11-25T04:33:45;4.30;99.90
4556;DHT22;2290;48.674;9.018;2022-11-25T04:36:11;4.30;99.90
4556;DHT22;2290;48.674;9.018;2022-11-25T04:38:37;4.30;99.90
4556;DHT22;2290;48.674;9.018;2022-11-25T04:41:02;4.30;99.90
4556;DHT22;2290;48.674;9.018;2022-11-25T04:43:28;4.30;99.90
4556;DHT22;2290;48.674;9.018;2022-11-25T04:45:54;4.40;99.90
4556;DHT22;2290;48.674;9.018;2022-11-25T04:48:19;4.30;99.90
4556;DHT22;2290;48.674;9.018;2022-11-25T04:50:45;4.30;99.90
4556;DHT22;2290;48.674;9.018;2022-11-25T04:53:11;4.40;99.90
4556;DHT22;2290;48.674;9.018;2022-11-25T04:55:36;4.40;99.90
4556;DHT22;2290;48.674;9.018;2022-11-25T04:58:02;4.40;99.90
4556;DHT22;2290;48.674;9.018;2022-11-25T05:00:28;4.40;99.90
4556;DHT22;2290;48.674;9.018;2022-11-25T05:02:53;4.40;99.90
4556;DHT22;2290;48.674;9.018;2022-11-25T05:05:19;4.40;99.90
4556;DHT22;2290;48.674;9.018;2022-11-25T05:07:45;4.40;99.90
4556;DHT22;2290;48.674;9.018;2022-11-25T05:10:10;4.40;99.90
4556;DHT22;2290;48.674;9.018;2022-11-25T05:12:36;4.40;99.90
4556;DHT22;2290;48.674;9.018;2022-11-25T05:15:02;4.50;99.90
4556;DHT22;2290;48.674;9.018;2022-11-25T05:17:31;4.50;99.90
4556;DHT22;2290;48.674;9.018;2022-11-25T05:19:57;4.60;99.90
4556;DHT22;2290;48.674;9.018;2022-11-25T05:22:25;4.60;99.90
4556;DHT22;2290;48.674;9.018;2022-11-25T05:24:51;4.60;99.90
4556;DHT22;2290;48.674;9.018;2022-11-25T05:27:18;4.50;99.90
4556;DHT22;2290;48.674;9.018;2022-11-25T05:29:44;4.50;99.90
4556;DHT22;2290;48.674;9.018;2022-11-25T05:32:10;4.40;99.90
4556;DHT22;2290;48.674;9.018;2022-11-25T05:34:36;4.40;99.90
4556;DHT22;2290;48.674;9.018;2022-11-25T05:37:02;4.30;99.90
4556;DHT22;2290;48.674;9.018;2022-11-25T05:39:28;4.20;99.90
4556;DHT22;2290;48.674;9.018;2022-11-25T05:41:54;4.30;99.90
4556;DHT22;2290;48.674;9.018;2022-11-25T05:44:20;4.40;99.90
4556;DHT22;2290;48.674;9.018;2022-11-25T05:46:46;4.30;99.90
4556;DHT22;2290;48.674;9.018;2022-11-25T05:49:13;4.40;99.90
4556;DHT22;2290;48.674;9.018;2022-11-25T05:51:40;4.40;99.90
4556;DHT22;2290;48.674;9.018;2022-11-25T05:54:06;4.30;99.90
4556;DHT22;2290;48.674;9.018;2022-11-25T05:56:32;4.20;99.90
4556;DHT22;2290;48.674;9.018;2022-11-25T05:58:58;4.10;99.90
4556;DHT22;2290;48.674;9.018;2022-11-25T06:01:24;4.10;99.90
4556;DHT22;2290;48.674;9.018;2022-11-25T06:03:50;3.90;99.90
4556;DHT22;2290;48.674;9.018;2022-11-25T06:06:16;3.90;99.90
4556;DHT22;2290;48.674;9.018;2022-11-25T06:08:42;3.90;99.90
4556;DHT22;2290;48.674;9.018;2022-11-25T06:11:15;3.90;99.90
4556;DHT22;2290;48.674;9.018;2022-11-25T06:13:42;4.00;99.90
4556;DHT22;2290;48.674;9.018;2022-11-25T06:16:16;4.00;99.90
4556;DHT22;2290;48.674;9.018;2022-11-25T06:18:42;4.20;99.90
4556;DHT22;2290;48.674;9.018;2022-11-25T06:21:08;4.20;99.90
4556;DHT22;2290;48.674;9.018;2022-11-25T06:23:35;4.40;99.90
4556;DHT22;2290;48.674;9.018;2022-11-25T06:26:21;4.30;99.90
4556;DHT22;2290;48.674;9.018;2022-11-25T06:28:50;4.20;99.90
4556;DHT22;2290;48.674;9.018;2022-11-25T06:31:19;4.10;99.90
4556;DHT22;2290;48.674;9.018;2022-11-25T06:33:46;4.00;99.90
4556;DHT22;2290;48.674;9.018;2022-11-25T06:36:13;3.90;99.90
4556;DHT22;2290;48.674;9.018;2022-11-25T06:38:49;3.90;99.90
4556;DHT22;2290;48.674;9.018;2022-11-25T06:41:15;3.80;99.90
4556;DHT22;2290;48.674;9.018;2022-11-25T06:43:41;3.80;99.90
4556;DHT22;2290;48.674;9.018;2022-11-25T06:46:12;3.80;99.90
4556;DHT22;2290;48.674;9.018;2022-11-25T06:48:38;3.80;99.90
4556;DHT22;2290;48.674;9.018;2022-11-25T06:51:06;3.90;99.90
4556;DHT22;2290;48.674;9.018;2022-11-25T06:53:33;3.90;99.90
4556;DHT22;2290;48.674;9.018;2022-11-25T06:58:31;4.20;99.90
4556;DHT22;2290;48.674;9.018;2022-11-25T07:01:09;4.30;99.90
4556;DHT22;2290;48.674;9.018;2022-11-25T07:03:36;4.30;99.90
4556;DHT22;2290;48.674;9.018;2022-11-25T07:06:02;4.20;99.90
4556;DHT22;2290;48.674;9.018;2022-11-25T07:08:28;4.30;99.90
4556;DHT22;2290;48.674;9.018;2022-11-25T07:10:54;4.40;99.90
4556;DHT22;2290;48.674;9.018;2022-11-25T07:13:20;4.50;99.90
4556;DHT22;2290;48.674;9.018;2022-11-25T07:15:46;4.60;99.90
4556;DHT22;2290;48.674;9.018;2022-11-25T07:18:12;4.70;99.90
4556;DHT22;2290;48.674;9.018;2022-11-25T07:20:38;4.80;99.90
4556;DHT22;2290;48.674;9.018;2022-11-25T07:23:03;4.80;99.90
4556;DHT22;2290;48.674;9.018;2022-11-25T07:25:29;4.90;99.90
4556;DHT22;2290;48.674;9.018;2022-11-25T07:27:55;5.00;99.90
4556;DHT22;2290;48.674;9.018;2022-11-25T07:30:20;5.10;99.90
4556;DHT22;2290;48.674;9.018;2022-11-25T07:32:46;5.30;99.90
4556;DHT22;2290;48.674;9.018;2022-11-25T07:35:12;5.40;99.90
4556;DHT22;2290;48.674;9.018;2022-11-25T07:37:37;5.40;99.90
4556;DHT22;2290;48.674;9.018;2022-11-25T07:40:03;5.40;99.90
4556;DHT22;2290;48.674;9.018;2022-11-25T07:42:29;5.50;99.90
4556;DHT22;2290;48.674;9.018;2022-11-25T07:44:54;5.50;99.90
4556;DHT22;2290;48.674;9.018;2022-11-25T07:47:20;5.60;99.90
4556;DHT22;2290;48.674;9.018;2022-11-25T07:49:46;5.60;99.90
4556;DHT22;2290;48.674;9.018;2022-11-25T07:52:11;5.70;99.90
4556;DHT22;2290;48.674;9.018;2022-11-25T07:54:37;5.90;99.90
4556;DHT22;2290;48.674;9.018;2022-11-25T07:57:02;5.90;99.90
4556;DHT22;2290;48.674;9.018;2022-11-25T07:59:28;6.00;99.90
4556;DHT22;2290;48.674;9.018;2022-11-25T08:01:54;5.90;99.90
4556;DHT22;2290;48.674;9.018;2022-11-25T08:04:21;5.80;99.90
4556;DHT22;2290;48.674;9.018;2022-11-25T08:06:49;5.80;99.90
4556;DHT22;2290;48.674;9.018;2022-11-25T08:09:18;5.70;99.90
4556;DHT22;2290;48.674;9.018;2022-11-25T08:11:44;5.70;99.90
4556;DHT22;2290;48.674;9.018;2022-11-25T08:14:09;5.80;99.90
4556;DHT22;2290;48.674;9.018;2022-11-25T08:16:36;5.80;99.90
4556;DHT22;2290;48.674;9.018;2022-11-25T08:19:03;5.80;99.90
4556;DHT22;2290;48.674;9.018;2022-11-25T08:21:29;5.90;99.90
4556;DHT22;2290;48.674;9.018;2022-11-25T08:23:55;6.00;99.90
4556;DHT22;2290;48.674;9.018;2022-11-25T08:26:30;6.00;99.90
4556;DHT22;2290;48.674;9.018;2022-11-25T08:28:57;6.00;99.90
4556;DHT22;2290;48.674;9.018;2022-11-25T08:31:25;6.10;99.90
4556;DHT22;2290;48.674;9.018;2022-11-25T08:33:51;6.10;99.90
4556;DHT22;2290;48.674;9.018;2022-11-25T08:36:18;6.20;99.90
4556;DHT22;2290;48.674;9.018;2022-11-25T08:38:45;6.30;99.90
4556;DHT22;2290;48.674;9.018;2022-11-25T08:41:14;6.40;99.90
4556;DHT22;2290;48.674;9.018;2022-11-25T08:43:41;6.50;99.90
4556;DHT22;2290;48.674;9.018;2022-11-25T08:46:09;6.60;99.90
4556;DHT22;2290;48.674;9.018;2022-11-25T08:48:35;6.60;99.90
4556;DHT22;2290;48.674;9.018;2022-11-25T08:51:01;6.70;99.90
4556;DHT22;2290;48.674;9.018;2022-11-25T08:53:26;6.70;99.90
4556;DHT22;2290;48.674;9.018;2022-11-25T08:55:52;6.80;99.90
4556;DHT22;2290;48.674;9.018;2022-11-25T08:58:17;6.80;99.90
4556;DHT22;2290;48.674;9.018;2022-11-25T09:00:44;6.90;99.90
4556;DHT22;2290;48.674;9.018;2022-11-25T09:03:10;7.10;99.90
4556;DHT22;2290;48.674;9.018;2022-11-25T09:05:42;7.10;99.90
4556;DHT22;2290;48.674;9.018;2022-11-25T09:08:09;7.10;99.90
4556;DHT22;2290;48.674;9.018;2022-11-25T09:10:36;7.10;99.90
4556;DHT22;2290;48.674;9.018;2022-11-25T09:13:02;7.00;99.90
4556;DHT22;2290;48.674;9.018;2022-11-25T09:15:28;7.10;99.90
4556;DHT22;2290;48.674;9.018;2022-11-25T09:18:03;7.10;99.90
4556;DHT22;2290;48.674;9.018;2022-11-25T09:20:30;7.10;99.90
4556;DHT22;2290;48.674;9.018;2022-11-25T09:22:58;7.20;99.90
4556;DHT22;2290;48.674;9.018;2022-11-25T09:25:24;7.20;99.90
4556;DHT22;2290;48.674;9.018;2022-11-25T09:27:52;7.10;99.90
4556;DHT22;2290;48.674;9.018;2022-11-25T09:30:18;7.20;99.90
4556;DHT22;2290;48.674;9.018;2022-11-25T09:32:44;7.20;99.90
4556;DHT22;2290;48.674;9.018;2022-11-25T09:35:12;7.30;99.90
4556;DHT22;2290;48.674;9.018;2022-11-25T09:37:38;7.40;99.90
4556;DHT22;2290;48.674;9.018;2022-11-25T09:40:10;7.50;99.90
4556;DHT22;2290;48.674;9.018;2022-11-25T09:42:56;7.60;99.90
4556;DHT22;2290;48.674;9.018;2022-11-25T09:45:45;7.70;99.90
4556;DHT22;2290;48.674;9.018;2022-11-25T09:49:01;7.80;99.90
4556;DHT22;2290;48.674;9.018;2022-11-25T09:56:41;8.00;99.90
4556;DHT22;2290;48.674;9.018;2022-11-25T09:59:20;8.10;99.90
4556;DHT22;2290;48.674;9.018;2022-11-25T10:02:03;8.20;99.90
4556;DHT22;2290;48.674;9.018;2022-11-25T10:04:50;8.10;99.90
4556;DHT22;2290;48.674;9.018;2022-11-25T10:07:21;8.10;99.90
4556;DHT22;2290;48.674;9.018;2022-11-25T10:09:53;8.10;99.90
4556;DHT22;2290;48.674;9.018;2022-11-25T10:12:25;8.20;99.90
4556;DHT22;2290;48.674;9.018;2022-11-25T10:15:07;8.30;99.90
4556;DHT22;2290;48.674;9.018;2022-11-25T10:17:59;8.40;99.90
4556;DHT22;2290;48.674;9.018;2022-11-25T10:20:30;8.70;99.90
4556;DHT22;2290;48.674;9.018;2022-11-25T10:23:03;8.90;99.90
4556;DHT22;2290;48.674;9.018;2022-11-25T10:25:34;9.00;99.90
4556;DHT22;2290;48.674;9.018;2022-11-25T10:28:28;9.00;99.90
4556;DHT22;2290;48.674;9.018;2022-11-25T10:31:17;9.10;99.90
4556;DHT22;2290;48.674;9.018;2022-11-25T10:33:52;9.10;99.90
4556;DHT22;2290;48.674;9.018;2022-11-25T10:36:37;9.00;99.90
4556;DHT22;2290;48.674;9.018;2022-11-25T10:39:19;9.00;99.90
4556;DHT22;2290;48.674;9.018;2022-11-25T10:44:57;9.00;99.90
4556;DHT22;2290;48.674;9.018;2022-11-25T10:50:16;8.90;99.90
4556;DHT22;2290;48.674;9.018;2022-11-25T10:53:20;9.00;99.90
4556;DHT22;2290;48.674;9.018;2022-11-25T10:55:56;8.90;99.90
4556;DHT22;2290;48.674;9.018;2022-11-25T10:58:34;8.90;99.90
4556;DHT22;2290;48.674;9.018;2022-11-25T11:03:50;8.90;99.90
4556;DHT22;2290;48.674;9.018;2022-11-25T11:06:35;8.90;99.90
4556;DHT22;2290;48.674;9.018;2022-11-25T11:09:01;8.90;99.90
4556;DHT22;2290;48.674;9.018;2022-11-25T11:11:27;8.80;99.90
4556;DHT22;2290;48.674;9.018;2022-11-25T11:16:42;8.80;99.90
4556;DHT22;2290;48.674;9.018;2022-11-25T11:19:27;8.70;99.90
4556;DHT22;2290;48.674;9.018;2022-11-25T11:21:54;8.70;99.90
4556;DHT22;2290;48.674;9.018;2022-11-25T11:24:31;8.60;99.90
4556;DHT22;2290;48.674;9.018;2022-11-25T11:27:10;8.70;99.90
4556;DHT22;2290;48.674;9.018;2022-11-25T11:29:37;8.70;99.90
4556;DHT22;2290;48.674;9.018;2022-11-25T11:32:05;8.80;99.90
4556;DHT22;2290;48.674;9.018;2022-11-25T11:37:43;8.70;99.90
4556;DHT22;2290;48.674;9.018;2022-11-25T11:45:51;9.00;99.90
4556;DHT22;2290;48.674;9.018;2022-11-25T11:51:26;8.80;99.90
4556;DHT22;2290;48.674;9.018;2022-11-25T11:54:17;8.80;99.90
4556;DHT22;2290;48.674;9.018;2022-11-25T11:56:58;8.80;99.90
4556;DHT22;2290;48.674;9.018;2022-11-25T11:59:48;8.80;99.90
4556;DHT22;2290;48.674;9.018;2022-11-25T12:03:03;8.70;99.90
4556;DHT22;2290;48.674;9.018;2022-11-25T12:10:30;8.80;99.90
4556;DHT22;2290;48.674;9.018;2022-11-25T12:15:59;8.80;99.90
4556;DHT22;2290;48.674;9.018;2022-11-25T12:26:44;9.10;99.90
4556;DHT22;2290;48.674;9.018;2022-11-25T12:29:34;9.10;99.90
4556;DHT22;2290;48.674;9.018;2022-11-25T12:34:57;9.10;99.90
4556;DHT22;2290;48.674;9.018;2022-11-25T12:40:36;9.00;99.90
4556;DHT22;2290;48.674;9.018;2022-11-25T12:43:20;8.90;99.90
4556;DHT22;2290;48.674;9.018;2022-11-25T12:45:50;8.90;99.90
4556;DHT22;2290;48.674;9.018;2022-11-25T12:48:19;8.90;99.90
4556;DHT22;2290;48.674;9.018;2022-11-25T12:51:08;8.90;99.90
4556;DHT22;2290;48.674;9.018;2022-11-25T12:53:59;8.90;99.90
4556;DHT22;2290;48.674;9.018;2022-11-25T12:56:59;8.90;99.90
4556;DHT22;2290;48.674;9.018;2022-11-25T13:11:20;8.90;99.90
4556;DHT22;2290;48.674;9.018;2022-11-25T13:13:51;8.80;99.90
4556;DHT22;2290;48.674;9.018;2022-11-25T13:16:20;8.90;99.90
4556;DHT22;2290;48.674;9.018;2022-11-25T13:18:46;8.80;99.90
4556;DHT22;2290;48.674;9.018;2022-11-25T13:21:13;8.80;99.90
4556;DHT22;2290;48.674;9.018;2022-11-25T13:23:47;8.80;99.90
4556;DHT22;2290;48.674;9.018;2022-11-25T13:26:34;8.80;99.90
4556;DHT22;2290;48.674;9.018;2022-11-25T13:36:48;9.00;99.90
4556;DHT22;2290;48.674;9.018;2022-11-25T13:39:27;9.10;99.90
4556;DHT22;2290;48.674;9.018;2022-11-25T13:42:18;9.30;99.90
4556;DHT22;2290;48.674;9.018;2022-11-25T13:44:54;9.50;99.90
4556;DHT22;2290;48.674;9.018;2022-11-25T13:54:48;10.10;99.90
4556;DHT22;2290;48.674;9.018;2022-11-25T13:57:41;10.50;99.90
4556;DHT22;2290;48.674;9.018;2022-11-25T14:06:20;10.20;99.90
4556;DHT22;2290;48.674;9.018;2022-11-25T14:09:08;10.10;99.90
4556;DHT22;2290;48.674;9.018;2022-11-25T14:14:51;10.00;99.90
4556;DHT22;2290;48.674;9.018;2022-11-25T14:23:08;9.50;99.90
4556;DHT22;2290;48.674;9.018;2022-11-25T14:25:55;9.30;99.90
4556;DHT22;2290;48.674;9.018;2022-11-25T14:31:02;9.10;99.90
4556;DHT22;2290;48.674;9.018;2022-11-25T14:33:37;9.00;99.90
4556;DHT22;2290;48.674;9.018;2022-11-25T14:36:13;8.90;99.90
4556;DHT22;2290;48.674;9.018;2022-11-25T14:38:51;8.80;99.90
4556;DHT22;2290;48.674;9.018;2022-11-25T14:41:23;8.70;99.90
4556;DHT22;2290;48.674;9.018;2022-11-25T14:43:56;8.70;99.90
4556;DHT22;2290;48.674;9.018;2022-11-25T14:46:23;8.70;99.90
4556;DHT22;2290;48.674;9.018;2022-11-25T14:48:58;8.70;99.90
4556;DHT22;2290;48.674;9.018;2022-11-25T14:51:26;8.70;99.90
4556;DHT22;2290;48.674;9.018;2022-11-25T14:53:52;8.70;99.90
4556;DHT22;2290;48.674;9.018;2022-11-25T14:56:25;8.70;99.90
4556;DHT22;2290;48.674;9.018;2022-11-25T14:58:53;8.60;99.90
4556;DHT22;2290;48.674;9.018;2022-11-25T15:01:30;8.60;99.90
4556;DHT22;2290;48.674;9.018;2022-11-25T15:06:39;8.60;99.90
4556;DHT22;2290;48.674;9.018;2022-11-25T15:11:51;8.60;99.90
4556;DHT22;2290;48.674;9.018;2022-11-25T15:14:36;8.50;99.90
4556;DHT22;2290;48.674;9.018;2022-11-25T15:17:07;8.40;99.90
4556;DHT22;2290;48.674;9.018;2022-11-25T15:19:35;8.40;99.90
4556;DHT22;2290;48.674;9.018;2022-11-25T15:22:03;8.40;99.90
4556;DHT22;2290;48.674;9.018;2022-11-25T15:24:49;8.40;99.90
4556;DHT22;2290;48.674;9.018;2022-11-25T15:27:24;8.30;99.90
4556;DHT22;2290;48.674;9.018;2022-11-25T15:29:52;8.20;99.90
4556;DHT22;2290;48.674;9.018;2022-11-25T15:34:45;8.20;99.90
4556;DHT22;2290;48.674;9.018;2022-11-25T15:37:11;8.20;99.90
4556;DHT22;2290;48.674;9.018;2022-11-25T15:39:37;8.10;99.90
4556;DHT22;2290;48.674;9.018;2022-11-25T15:42:23;8.10;99.90
4556;DHT22;2290;48.674;9.018;2022-11-25T15:45:01;8.10;99.90
4556;DHT22;2290;48.674;9.018;2022-11-25T15:47:29;8.10;99.90
4556;DHT22;2290;48.674;9.018;2022-11-25T15:52:31;8.10;99.90
4556;DHT22;2290;48.674;9.018;2022-11-25T15:58:24;8.40;99.90
4556;DHT22;2290;48.674;9.018;2022-11-25T16:01:18;8.40;99.90
4556;DHT22;2290;48.674;9.018;2022-11-25T16:03:47;8.50;99.90
4556;DHT22;2290;48.674;9.018;2022-11-25T16:06:25;8.70;99.90
4556;DHT22;2290;48.674;9.018;2022-11-25T16:08:59;8.70;99.90
4556;DHT22;2290;48.674;9.018;2022-11-25T16:11:27;8.70;99.90
4556;DHT22;2290;48.674;9.018;2022-11-25T16:14:23;8.70;99.90
4556;DHT22;2290;48.674;9.018;2022-11-25T16:16:50;8.60;99.90
4556;DHT22;2290;48.674;9.018;2022-11-25T16:19:20;8.50;99.90
4556;DHT22;2290;48.674;9.018;2022-11-25T16:21:55;8.40;99.90
4556;DHT22;2290;48.674;9.018;2022-11-25T16:24:31;8.20;99.90
4556;DHT22;2290;48.674;9.018;2022-11-25T16:27:12;8.10;99.90
4556;DHT22;2290;48.674;9.018;2022-11-25T16:29:56;8.10;99.90
4556;DHT22;2290;48.674;9.018;2022-11-25T16:32:29;8.00;99.90
4556;DHT22;2290;48.674;9.018;2022-11-25T16:35:15;8.00;99.90
4556;DHT22;2290;48.674;9.018;2022-11-25T16:37:42;8.00;99.90
4556;DHT22;2290;48.674;9.018;2022-11-25T16:40:11;8.00;99.90
4556;DHT22;2290;48.674;9.018;2022-11-25T16:42:37;8.00;99.90
4556;DHT22;2290;48.674;9.018;2022-11-25T16:45:14;7.90;99.90
4556;DHT22;2290;48.674;9.018;2022-11-25T16:47:41;7.90;99.90
4556;DHT22;2290;48.674;9.018;2022-11-25T16:50:15;8.00;99.90
4556;DHT22;2290;48.674;9.018;2022-11-25T16:52:42;7.90;99.90
4556;DHT22;2290;48.674;9.018;2022-11-25T16:55:08;7.90;99.90
4556;DHT22;2290;48.674;9.018;2022-11-25T16:57:34;7.90;99.90
4556;DHT22;2290;48.674;9.018;2022-11-25T17:00:03;7.90;99.90
4556;DHT22;2290;48.674;9.018;2022-11-25T17:02:33;7.90;99.90
4556;DHT22;2290;48.674;9.018;2022-11-25T17:05:20;7.90;99.90
4556;DHT22;2290;48.674;9.018;2022-11-25T17:07:46;7.80;99.90
4556;DHT22;2290;48.674;9.018;2022-11-25T17:10:14;7.70;99.90
4556;DHT22;2290;48.674;9.018;2022-11-25T17:12:41;7.70;99.90
4556;DHT22;2290;48.674;9.018;2022-11-25T17:15:16;7.70;99.90
4556;DHT22;2290;48.674;9.018;2022-11-25T17:17:44;7.70;99.90
4556;DHT22;2290;48.674;9.018;2022-11-25T17:20:22;7.70;99.90
4556;DHT22;2290;48.674;9.018;2022-11-25T17:22:50;7.70;99.90
4556;DHT22;2290;48.674;9.018;2022-11-25T17:25:16;7.70;99.90
4556;DHT22;2290;48.674;9.018;2022-11-25T17:27:42;7.70;99.90
4556;DHT22;2290;48.674;9.018;2022-11-25T17:30:23;7.70;99.90
4556;DHT22;2290;48.674;9.018;2022-11-25T17:32:57;7.80;99.90
4556;DHT22;2290;48.674;9.018;2022-11-25T17:35:25;7.70;99.90
4556;DHT22;2290;48.674;9.018;2022-11-25T17:37:50;7.80;99.90
4556;DHT22;2290;48.674;9.018;2022-11-25T17:40:16;7.70;99.90
4556;DHT22;2290;48.674;9.018;2022-11-25T17:42:42;7.80;99.90
4556;DHT22;2290;48.674;9.018;2022-11-25T17:45:13;7.70;99.90
4556;DHT22;2290;48.674;9.018;2022-11-25T17:47:39;7.80;99.90
4556;DHT22;2290;48.674;9.018;2022-11-25T17:50:22;7.90;99.90
4556;DHT22;2290;48.674;9.018;2022-11-25T17:52:49;7.90;99.90
4556;DHT22;2290;48.674;9.018;2022-11-25T17:55:16;7.90;99.90
4556;DHT22;2290;48.674;9.018;2022-11-25T17:57:48;7.90;99.90
4556;DHT22;2290;48.674;9.018;2022-11-25T18:00:17;7.90;99.90
4556;DHT22;2290;48.674;9.018;2022-11-25T18:02:43;7.90;99.90
4556;DHT22;2290;48.674;9.018;2022-11-25T18:05:18;7.90;99.90
4556;DHT22;2290;48.674;9.018;2022-11-25T18:07:45;7.80;99.90
4556;DHT22;2290;48.674;9.018;2022-11-25T18:10:13;7.80;99.90
4556;DHT22;2290;48.674;9.018;2022-11-25T18:12:39;7.80;99.90
4556;DHT22;2290;48.674;9.018;2022-11-25T18:15:06;7.80;99.90
4556;DHT22;2290;48.674;9.018;2022-11-25T18:17:34;7.90;99.90
4556;DHT22;2290;48.674;9.018;2022-11-25T18:20:00;7.90;99.90
4556;DHT22;2290;48.674;9.018;2022-11-25T18:22:25;7.90;99.90
4556;DHT22;2290;48.674;9.018;2022-11-25T18:24:51;7.90;99.90
4556;DHT22;2290;48.674;9.018;2022-11-25T18:27:28;7.90;99.90
4556;DHT22;2290;48.674;9.018;2022-11-25T18:29:56;7.90;99.90
4556;DHT22;2290;48.674;9.018;2022-11-25T18:32:23;7.90;99.90
4556;DHT22;2290;48.674;9.018;2022-11-25T18:34:49;7.90;99.90
4556;DHT22;2290;48.674;9.018;2022-11-25T18:37:14;7.90;99.90